sensor_id;sensor_type;location;lat;lon;timestamp;pressure;altitude;pressure_sealevel;temperature
5571;BMP180;2808;51.240;6.794;2023-09-19T00:00:18;100412.00;;;16.70
5571;BMP180;2808;51.240;6.794;2023-09-19T00:02:51;100417.00;;;16.60
5571;BMP180;2808;51.240;6.794;2023-09-19T00:05:19;100428.00;;;16.60
5571;BMP180;2808;51.240;6.794;2023-09-19T00:07:50;100422.00;;;16.60
5571;BMP180;2808;51.240;6.794;2023-09-19T00:10:20;100424.00;;;16.60
5571;BMP180;2808;51.240;6.794;2023-09-19T00:12:49;100428.00;;;16.60
5571;BMP180;2808;51.240;6.794;2023-09-19T00:15:17;100429.00;;;16.60
5571;BMP180;2808;51.240;6.794;2023-09-19T00:17:46;100425.00;;;16.50
5571;BMP180;2808;51.240;6.794;2023-09-19T00:20:14;100430.00;;;16.50
5571;BMP180;2808;51.240;6.794;2023-09-19T00:22:43;100423.00;;;16.40
5571;BMP180;2808;51.240;6.794;2023-09-19T00:25:11;100427.00;;;16.50
5571;BMP180;2808;51.240;6.794;2023-09-19T00:27:41;100432.00;;;16.40
5571;BMP180;2808;51.240;6.794;2023-09-19T00:30:13;100429.00;;;16.40
5571;BMP180;2808;51.240;6.794;2023-09-19T00:32:46;100429.00;;;16.40
5571;BMP180;2808;51.240;6.794;2023-09-19T00:35:15;100429.00;;;16.40
5571;BMP180;2808;51.240;6.794;2023-09-19T00:37:42;100440.00;;;16.40
5571;BMP180;2808;51.240;6.794;2023-09-19T00:40:11;100433.00;;;16.40
5571;BMP180;2808;51.240;6.794;2023-09-19T00:42:41;100436.00;;;16.40
5571;BMP180;2808;51.240;6.794;2023-09-19T00:45:10;100438.00;;;16.40
5571;BMP180;2808;51.240;6.794;2023-09-19T00:47:42;100442.00;;;16.40
5571;BMP180;2808;51.240;6.794;2023-09-19T00:50:13;100442.00;;;16.40
5571;BMP180;2808;51.240;6.794;2023-09-19T00:52:43;100442.00;;;16.30
5571;BMP180;2808;51.240;6.794;2023-09-19T00:55:11;100441.00;;;16.30
5571;BMP180;2808;51.240;6.794;2023-09-19T00:57:40;100452.00;;;16.30
5571;BMP180;2808;51.240;6.794;2023-09-19T01:00:09;100446.00;;;16.20
5571;BMP180;2808;51.240;6.794;2023-09-19T01:02:42;100449.00;;;16.30
5571;BMP180;2808;51.240;6.794;2023-09-19T01:05:10;100447.00;;;16.30
5571;BMP180;2808;51.240;6.794;2023-09-19T01:07:38;100453.00;;;16.30
5571;BMP180;2808;51.240;6.794;2023-09-19T01:10:08;100463.00;;;16.30
5571;BMP180;2808;51.240;6.794;2023-09-19T01:12:52;100458.00;;;16.20
5571;BMP180;2808;51.240;6.794;2023-09-19T01:15:35;100463.00;;;16.20
5571;BMP180;2808;51.240;6.794;2023-09-19T01:18:16;100458.00;;;16.10
5571;BMP180;2808;51.240;6.794;2023-09-19T01:20:53;100470.00;;;16.20
5571;BMP180;2808;51.240;6.794;2023-09-19T01:23:29;100476.00;;;16.10
5571;BMP180;2808;51.240;6.794;2023-09-19T01:26:07;100473.00;;;16.10
5571;BMP180;2808;51.240;6.794;2023-09-19T01:28:51;100476.00;;;16.10
5571;BMP180;2808;51.240;6.794;2023-09-19T01:31:22;100480.00;;;16.10
5571;BMP180;2808;51.240;6.794;2023-09-19T01:33:58;100490.00;;;16.10
5571;BMP180;2808;51.240;6.794;2023-09-19T01:36:31;100483.00;;;16.10
5571;BMP180;2808;51.240;6.794;2023-09-19T01:39:01;100481.00;;;16.10
5571;BMP180;2808;51.240;6.794;2023-09-19T01:41:55;100491.00;;;16.10
5571;BMP180;2808;51.240;6.794;2023-09-19T01:44:31;100496.00;;;16.10
5571;BMP180;2808;51.240;6.794;2023-09-19T01:47:11;100502.00;;;16.10
5571;BMP180;2808;51.240;6.794;2023-09-19T01:49:50;100505.00;;;16.10
5571;BMP180;2808;51.240;6.794;2023-09-19T01:52:26;100504.00;;;16.10
5571;BMP180;2808;51.240;6.794;2023-09-19T01:55:07;100497.00;;;16.10
5571;BMP180;2808;51.240;6.794;2023-09-19T01:57:40;100491.00;;;16.10
5571;BMP180;2808;51.240;6.794;2023-09-19T02:00:11;100486.00;;;16.10
5571;BMP180;2808;51.240;6.794;2023-09-19T02:02:42;100500.00;;;16.10
5571;BMP180;2808;51.240;6.794;2023-09-19T02:05:11;100498.00;;;16.10
5571;BMP180;2808;51.240;6.794;2023-09-19T02:07:39;100501.00;;;16.10
5571;BMP180;2808;51.240;6.794;2023-09-19T02:10:07;100501.00;;;16.10
5571;BMP180;2808;51.240;6.794;2023-09-19T02:12:36;100503.00;;;16.10
5571;BMP180;2808;51.240;6.794;2023-09-19T02:15:05;100501.00;;;16.00
5571;BMP180;2808;51.240;6.794;2023-09-19T02:17:33;100501.00;;;16.00
5571;BMP180;2808;51.240;6.794;2023-09-19T02:20:02;100504.00;;;16.00
5571;BMP180;2808;51.240;6.794;2023-09-19T02:22:36;100503.00;;;16.00
5571;BMP180;2808;51.240;6.794;2023-09-19T02:25:06;100514.00;;;16.00
5571;BMP180;2808;51.240;6.794;2023-09-19T02:27:33;100515.00;;;16.00
5571;BMP180;2808;51.240;6.794;2023-09-19T02:30:01;100519.00;;;16.00
5571;BMP180;2808;51.240;6.794;2023-09-19T02:32:30;100524.00;;;16.00
5571;BMP180;2808;51.240;6.794;2023-09-19T02:35:02;100524.00;;;16.00
5571;BMP180;2808;51.240;6.794;2023-09-19T02:37:30;100525.00;;;16.00
5571;BMP180;2808;51.240;6.794;2023-09-19T02:39:58;100530.00;;;16.00
5571;BMP180;2808;51.240;6.794;2023-09-19T02:42:26;100525.00;;;16.00
5571;BMP180;2808;51.240;6.794;2023-09-19T02:44:53;100521.00;;;15.90
5571;BMP180;2808;51.240;6.794;2023-09-19T02:47:20;100526.00;;;15.90
5571;BMP180;2808;51.240;6.794;2023-09-19T02:49:48;100517.00;;;15.90
5571;BMP180;2808;51.240;6.794;2023-09-19T02:52:17;100525.00;;;15.90
5571;BMP180;2808;51.240;6.794;2023-09-19T02:54:45;100521.00;;;15.90
5571;BMP180;2808;51.240;6.794;2023-09-19T02:57:12;100526.00;;;15.80
5571;BMP180;2808;51.240;6.794;2023-09-19T02:59:42;100525.00;;;15.80
5571;BMP180;2808;51.240;6.794;2023-09-19T03:02:10;100536.00;;;15.90
5571;BMP180;2808;51.240;6.794;2023-09-19T03:04:37;100529.00;;;15.80
5571;BMP180;2808;51.240;6.794;2023-09-19T03:07:05;100542.00;;;15.80
5571;BMP180;2808;51.240;6.794;2023-09-19T03:09:34;100536.00;;;15.80
5571;BMP180;2808;51.240;6.794;2023-09-19T03:12:04;100544.00;;;15.80
5571;BMP180;2808;51.240;6.794;2023-09-19T03:14:32;100551.00;;;15.80
5571;BMP180;2808;51.240;6.794;2023-09-19T03:17:01;100553.00;;;15.80
5571;BMP180;2808;51.240;6.794;2023-09-19T03:19:30;100550.00;;;15.80
5571;BMP180;2808;51.240;6.794;2023-09-19T03:21:59;100541.00;;;15.80
5571;BMP180;2808;51.240;6.794;2023-09-19T03:24:26;100540.00;;;15.80
5571;BMP180;2808;51.240;6.794;2023-09-19T03:26:56;100543.00;;;15.70
5571;BMP180;2808;51.240;6.794;2023-09-19T03:29:24;100540.00;;;15.70
5571;BMP180;2808;51.240;6.794;2023-09-19T03:31:53;100543.00;;;15.70
5571;BMP180;2808;51.240;6.794;2023-09-19T03:34:20;100545.00;;;15.60
5571;BMP180;2808;51.240;6.794;2023-09-19T03:36:48;100542.00;;;15.60
5571;BMP180;2808;51.240;6.794;2023-09-19T03:39:15;100541.00;;;15.60
5571;BMP180;2808;51.240;6.794;2023-09-19T03:41:43;100550.00;;;15.60
5571;BMP180;2808;51.240;6.794;2023-09-19T03:44:12;100540.00;;;15.60
5571;BMP180;2808;51.240;6.794;2023-09-19T03:46:39;100541.00;;;15.60
5571;BMP180;2808;51.240;6.794;2023-09-19T03:49:07;100537.00;;;15.60
5571;BMP180;2808;51.240;6.794;2023-09-19T03:51:34;100548.00;;;15.60
5571;BMP180;2808;51.240;6.794;2023-09-19T03:54:03;100533.00;;;15.50
5571;BMP180;2808;51.240;6.794;2023-09-19T03:56:31;100542.00;;;15.50
5571;BMP180;2808;51.240;6.794;2023-09-19T03:58:58;100544.00;;;15.60
5571;BMP180;2808;51.240;6.794;2023-09-19T04:01:30;100538.00;;;15.50
5571;BMP180;2808;51.240;6.794;2023-09-19T04:04:03;100545.00;;;15.50
5571;BMP180;2808;51.240;6.794;2023-09-19T04:06:34;100547.00;;;15.50
5571;BMP180;2808;51.240;6.794;2023-09-19T04:09:02;100544.00;;;15.50
5571;BMP180;2808;51.240;6.794;2023-09-19T04:11:30;100545.00;;;15.50
5571;BMP180;2808;51.240;6.794;2023-09-19T04:13:57;100540.00;;;15.50
5571;BMP180;2808;51.240;6.794;2023-09-19T04:16:26;100540.00;;;15.50
5571;BMP180;2808;51.240;6.794;2023-09-19T04:18:54;100545.00;;;15.50
5571;BMP180;2808;51.240;6.794;2023-09-19T04:21:21;100547.00;;;15.50
5571;BMP180;2808;51.240;6.794;2023-09-19T04:23:48;100536.00;;;15.50
5571;BMP180;2808;51.240;6.794;2023-09-19T04:26:16;100533.00;;;15.50
5571;BMP180;2808;51.240;6.794;2023-09-19T04:28:43;100542.00;;;15.40
5571;BMP180;2808;51.240;6.794;2023-09-19T04:31:12;100548.00;;;15.50
5571;BMP180;2808;51.240;6.794;2023-09-19T04:33:41;100547.00;;;15.50
5571;BMP180;2808;51.240;6.794;2023-09-19T04:36:09;100552.00;;;15.40
5571;BMP180;2808;51.240;6.794;2023-09-19T04:38:39;100554.00;;;15.40
5571;BMP180;2808;51.240;6.794;2023-09-19T04:41:07;100549.00;;;15.40
5571;BMP180;2808;51.240;6.794;2023-09-19T04:43:35;100550.00;;;15.30
5571;BMP180;2808;51.240;6.794;2023-09-19T04:46:02;100550.00;;;15.30
5571;BMP180;2808;51.240;6.794;2023-09-19T04:48:32;100554.00;;;15.30
5571;BMP180;2808;51.240;6.794;2023-09-19T04:51:01;100558.00;;;15.30
5571;BMP180;2808;51.240;6.794;2023-09-19T04:53:29;100551.00;;;15.30
5571;BMP180;2808;51.240;6.794;2023-09-19T04:55:56;100555.00;;;15.30
5571;BMP180;2808;51.240;6.794;2023-09-19T04:58:26;100560.00;;;15.30
5571;BMP180;2808;51.240;6.794;2023-09-19T05:00:54;100558.00;;;15.30
5571;BMP180;2808;51.240;6.794;2023-09-19T05:03:22;100567.00;;;15.30
5571;BMP180;2808;51.240;6.794;2023-09-19T05:05:49;100565.00;;;15.20
5571;BMP180;2808;51.240;6.794;2023-09-19T05:08:18;100561.00;;;15.30
5571;BMP180;2808;51.240;6.794;2023-09-19T05:10:45;100567.00;;;15.30
5571;BMP180;2808;51.240;6.794;2023-09-19T05:13:13;100577.00;;;15.30
5571;BMP180;2808;51.240;6.794;2023-09-19T05:15:40;100583.00;;;15.40
5571;BMP180;2808;51.240;6.794;2023-09-19T05:18:08;100582.00;;;15.40
5571;BMP180;2808;51.240;6.794;2023-09-19T05:20:36;100598.00;;;15.40
5571;BMP180;2808;51.240;6.794;2023-09-19T05:23:07;100594.00;;;15.40
5571;BMP180;2808;51.240;6.794;2023-09-19T05:25:37;100595.00;;;15.40
5571;BMP180;2808;51.240;6.794;2023-09-19T05:28:05;100597.00;;;15.50
5571;BMP180;2808;51.240;6.794;2023-09-19T05:30:33;100610.00;;;15.50
5571;BMP180;2808;51.240;6.794;2023-09-19T05:33:02;100618.00;;;15.50
5571;BMP180;2808;51.240;6.794;2023-09-19T05:35:30;100621.00;;;15.60
5571;BMP180;2808;51.240;6.794;2023-09-19T05:37:58;100626.00;;;15.60
5571;BMP180;2808;51.240;6.794;2023-09-19T05:40:26;100633.00;;;15.70
5571;BMP180;2808;51.240;6.794;2023-09-19T05:42:55;100638.00;;;15.80
5571;BMP180;2808;51.240;6.794;2023-09-19T05:45:22;100642.00;;;15.80
5571;BMP180;2808;51.240;6.794;2023-09-19T05:47:51;100636.00;;;15.90
5571;BMP180;2808;51.240;6.794;2023-09-19T05:50:22;100624.00;;;15.90
5571;BMP180;2808;51.240;6.794;2023-09-19T05:52:54;100646.00;;;15.90
5571;BMP180;2808;51.240;6.794;2023-09-19T05:55:22;100642.00;;;15.90
5571;BMP180;2808;51.240;6.794;2023-09-19T05:57:51;100650.00;;;16.00
5571;BMP180;2808;51.240;6.794;2023-09-19T06:00:21;100648.00;;;16.00
5571;BMP180;2808;51.240;6.794;2023-09-19T06:02:50;100656.00;;;16.10
5571;BMP180;2808;51.240;6.794;2023-09-19T06:05:18;100658.00;;;16.10
5571;BMP180;2808;51.240;6.794;2023-09-19T06:07:46;100670.00;;;16.10
5571;BMP180;2808;51.240;6.794;2023-09-19T06:10:13;100675.00;;;16.20
5571;BMP180;2808;51.240;6.794;2023-09-19T06:12:41;100668.00;;;16.20
5571;BMP180;2808;51.240;6.794;2023-09-19T06:15:10;100668.00;;;16.20
5571;BMP180;2808;51.240;6.794;2023-09-19T06:17:42;100674.00;;;16.20
5571;BMP180;2808;51.240;6.794;2023-09-19T06:20:10;100655.00;;;16.20
5571;BMP180;2808;51.240;6.794;2023-09-19T06:22:41;100651.00;;;16.20
5571;BMP180;2808;51.240;6.794;2023-09-19T06:25:10;100655.00;;;16.30
5571;BMP180;2808;51.240;6.794;2023-09-19T06:27:38;100659.00;;;16.20
5571;BMP180;2808;51.240;6.794;2023-09-19T06:30:11;100660.00;;;16.30
5571;BMP180;2808;51.240;6.794;2023-09-19T06:32:39;100656.00;;;16.40
5571;BMP180;2808;51.240;6.794;2023-09-19T06:35:11;100647.00;;;16.30
5571;BMP180;2808;51.240;6.794;2023-09-19T06:37:39;100665.00;;;16.40
5571;BMP180;2808;51.240;6.794;2023-09-19T06:40:09;100659.00;;;16.50
5571;BMP180;2808;51.240;6.794;2023-09-19T06:42:40;100650.00;;;16.60
5571;BMP180;2808;51.240;6.794;2023-09-19T06:45:08;100654.00;;;16.70
5571;BMP180;2808;51.240;6.794;2023-09-19T06:47:38;100657.00;;;16.70
5571;BMP180;2808;51.240;6.794;2023-09-19T06:50:06;100656.00;;;16.80
5571;BMP180;2808;51.240;6.794;2023-09-19T06:52:40;100659.00;;;16.80
5571;BMP180;2808;51.240;6.794;2023-09-19T06:55:08;100661.00;;;16.70
5571;BMP180;2808;51.240;6.794;2023-09-19T06:57:39;100662.00;;;16.80
5571;BMP180;2808;51.240;6.794;2023-09-19T07:00:08;100661.00;;;16.80
5571;BMP180;2808;51.240;6.794;2023-09-19T07:02:41;100669.00;;;16.90
5571;BMP180;2808;51.240;6.794;2023-09-19T07:05:09;100666.00;;;16.80
5571;BMP180;2808;51.240;6.794;2023-09-19T07:07:36;100673.00;;;17.00
5571;BMP180;2808;51.240;6.794;2023-09-19T07:10:06;100673.00;;;17.00
5571;BMP180;2808;51.240;6.794;2023-09-19T07:12:34;100673.00;;;17.00
5571;BMP180;2808;51.240;6.794;2023-09-19T07:15:02;100676.00;;;17.20
5571;BMP180;2808;51.240;6.794;2023-09-19T07:17:31;100675.00;;;17.30
5571;BMP180;2808;51.240;6.794;2023-09-19T07:19:59;100664.00;;;17.40
5571;BMP180;2808;51.240;6.794;2023-09-19T07:22:27;100678.00;;;17.50
5571;BMP180;2808;51.240;6.794;2023-09-19T07:24:54;100681.00;;;17.60
5571;BMP180;2808;51.240;6.794;2023-09-19T07:27:23;100685.00;;;17.70
5571;BMP180;2808;51.240;6.794;2023-09-19T07:29:51;100677.00;;;17.80
5571;BMP180;2808;51.240;6.794;2023-09-19T07:32:18;100679.00;;;18.00
5571;BMP180;2808;51.240;6.794;2023-09-19T07:34:45;100686.00;;;18.10
5571;BMP180;2808;51.240;6.794;2023-09-19T07:37:13;100691.00;;;18.10
5571;BMP180;2808;51.240;6.794;2023-09-19T07:39:42;100692.00;;;18.10
5571;BMP180;2808;51.240;6.794;2023-09-19T07:42:09;100691.00;;;18.20
5571;BMP180;2808;51.240;6.794;2023-09-19T07:44:38;100692.00;;;18.30
5571;BMP180;2808;51.240;6.794;2023-09-19T07:47:06;100691.00;;;18.30
5571;BMP180;2808;51.240;6.794;2023-09-19T07:49:33;100690.00;;;18.40
5571;BMP180;2808;51.240;6.794;2023-09-19T07:52:00;100688.00;;;18.50
5571;BMP180;2808;51.240;6.794;2023-09-19T07:54:28;100697.00;;;18.50
5571;BMP180;2808;51.240;6.794;2023-09-19T07:57:01;100691.00;;;18.40
5571;BMP180;2808;51.240;6.794;2023-09-19T07:59:28;100694.00;;;18.40
5571;BMP180;2808;51.240;6.794;2023-09-19T08:01:57;100696.00;;;18.50
5571;BMP180;2808;51.240;6.794;2023-09-19T08:04:25;100704.00;;;18.70
5571;BMP180;2808;51.240;6.794;2023-09-19T08:06:52;100706.00;;;18.70
5571;BMP180;2808;51.240;6.794;2023-09-19T08:09:22;100707.00;;;18.90
5571;BMP180;2808;51.240;6.794;2023-09-19T08:11:49;100711.00;;;19.10
5571;BMP180;2808;51.240;6.794;2023-09-19T08:14:16;100702.00;;;19.20
5571;BMP180;2808;51.240;6.794;2023-09-19T08:16:44;100707.00;;;19.20
5571;BMP180;2808;51.240;6.794;2023-09-19T08:19:12;100697.00;;;19.20
5571;BMP180;2808;51.240;6.794;2023-09-19T08:21:40;100705.00;;;19.20
5571;BMP180;2808;51.240;6.794;2023-09-19T08:24:11;100711.00;;;19.20
5571;BMP180;2808;51.240;6.794;2023-09-19T08:26:40;100707.00;;;19.40
5571;BMP180;2808;51.240;6.794;2023-09-19T08:29:10;100705.00;;;19.30
5571;BMP180;2808;51.240;6.794;2023-09-19T08:31:38;100720.00;;;19.40
5571;BMP180;2808;51.240;6.794;2023-09-19T08:34:06;100725.00;;;19.40
5571;BMP180;2808;51.240;6.794;2023-09-19T08:36:35;100726.00;;;19.60
5571;BMP180;2808;51.240;6.794;2023-09-19T08:39:03;100726.00;;;19.80
5571;BMP180;2808;51.240;6.794;2023-09-19T08:41:31;100718.00;;;19.80
5571;BMP180;2808;51.240;6.794;2023-09-19T08:43:59;100710.00;;;19.90
5571;BMP180;2808;51.240;6.794;2023-09-19T08:46:30;100719.00;;;20.00
5571;BMP180;2808;51.240;6.794;2023-09-19T08:49:04;100725.00;;;19.90
5571;BMP180;2808;51.240;6.794;2023-09-19T08:51:42;100727.00;;;20.00
5571;BMP180;2808;51.240;6.794;2023-09-19T08:54:21;100723.00;;;20.00
5571;BMP180;2808;51.240;6.794;2023-09-19T08:56:51;100723.00;;;20.00
5571;BMP180;2808;51.240;6.794;2023-09-19T08:59:22;100725.00;;;20.10
5571;BMP180;2808;51.240;6.794;2023-09-19T09:01:53;100721.00;;;20.30
5571;BMP180;2808;51.240;6.794;2023-09-19T09:04:22;100723.00;;;20.30
5571;BMP180;2808;51.240;6.794;2023-09-19T09:06:54;100730.00;;;20.30
5571;BMP180;2808;51.240;6.794;2023-09-19T09:09:24;100738.00;;;20.20
5571;BMP180;2808;51.240;6.794;2023-09-19T09:11:51;100732.00;;;20.30
5571;BMP180;2808;51.240;6.794;2023-09-19T09:14:19;100729.00;;;20.40
5571;BMP180;2808;51.240;6.794;2023-09-19T09:16:48;100722.00;;;20.50
5571;BMP180;2808;51.240;6.794;2023-09-19T09:19:15;100721.00;;;20.70
5571;BMP180;2808;51.240;6.794;2023-09-19T09:21:51;100706.00;;;20.60
5571;BMP180;2808;51.240;6.794;2023-09-19T09:24:28;100719.00;;;20.50
5571;BMP180;2808;51.240;6.794;2023-09-19T09:26:56;100713.00;;;20.40
5571;BMP180;2808;51.240;6.794;2023-09-19T09:29:48;100723.00;;;20.60
5571;BMP180;2808;51.240;6.794;2023-09-19T09:32:18;100721.00;;;20.80
5571;BMP180;2808;51.240;6.794;2023-09-19T09:34:47;100711.00;;;20.90
5571;BMP180;2808;51.240;6.794;2023-09-19T09:37:17;100716.00;;;21.10
5571;BMP180;2808;51.240;6.794;2023-09-19T09:39:50;100720.00;;;21.20
5571;BMP180;2808;51.240;6.794;2023-09-19T09:42:34;100710.00;;;21.20
5571;BMP180;2808;51.240;6.794;2023-09-19T09:45:16;100713.00;;;21.10
5571;BMP180;2808;51.240;6.794;2023-09-19T09:47:46;100727.00;;;21.10
5571;BMP180;2808;51.240;6.794;2023-09-19T09:50:27;100710.00;;;20.90
5571;BMP180;2808;51.240;6.794;2023-09-19T09:53:22;100717.00;;;20.70
5571;BMP180;2808;51.240;6.794;2023-09-19T09:56:03;100712.00;;;20.60
5571;BMP180;2808;51.240;6.794;2023-09-19T09:58:33;100717.00;;;20.40
5571;BMP180;2808;51.240;6.794;2023-09-19T10:01:02;100728.00;;;20.40
5571;BMP180;2808;51.240;6.794;2023-09-19T10:03:36;100716.00;;;20.40
5571;BMP180;2808;51.240;6.794;2023-09-19T10:06:10;100721.00;;;20.40
5571;BMP180;2808;51.240;6.794;2023-09-19T10:09:04;100721.00;;;20.50
5571;BMP180;2808;51.240;6.794;2023-09-19T10:11:41;100714.00;;;20.50
5571;BMP180;2808;51.240;6.794;2023-09-19T10:14:15;100713.00;;;20.40
5571;BMP180;2808;51.240;6.794;2023-09-19T10:16:46;100710.00;;;20.20
5571;BMP180;2808;51.240;6.794;2023-09-19T10:19:26;100704.00;;;20.20
5571;BMP180;2808;51.240;6.794;2023-09-19T10:21:57;100703.00;;;20.30
5571;BMP180;2808;51.240;6.794;2023-09-19T10:24:30;100699.00;;;20.30
5571;BMP180;2808;51.240;6.794;2023-09-19T10:27:01;100697.00;;;20.30
5571;BMP180;2808;51.240;6.794;2023-09-19T10:29:29;100693.00;;;20.30
5571;BMP180;2808;51.240;6.794;2023-09-19T10:32:03;100684.00;;;20.20
5571;BMP180;2808;51.240;6.794;2023-09-19T10:34:32;100688.00;;;20.30
5571;BMP180;2808;51.240;6.794;2023-09-19T10:37:02;100680.00;;;20.50
5571;BMP180;2808;51.240;6.794;2023-09-19T10:39:33;100686.00;;;20.60
5571;BMP180;2808;51.240;6.794;2023-09-19T10:42:06;100690.00;;;20.70
5571;BMP180;2808;51.240;6.794;2023-09-19T10:44:38;100690.00;;;20.70
5571;BMP180;2808;51.240;6.794;2023-09-19T10:47:12;100685.00;;;20.70
5571;BMP180;2808;51.240;6.794;2023-09-19T10:49:48;100685.00;;;20.60
5571;BMP180;2808;51.240;6.794;2023-09-19T10:52:22;100697.00;;;20.50
5571;BMP180;2808;51.240;6.794;2023-09-19T10:55:18;100693.00;;;20.50
5571;BMP180;2808;51.240;6.794;2023-09-19T10:57:53;100698.00;;;20.60
5571;BMP180;2808;51.240;6.794;2023-09-19T11:00:51;100683.00;;;20.70
5571;BMP180;2808;51.240;6.794;2023-09-19T11:03:21;100684.00;;;20.70
5571;BMP180;2808;51.240;6.794;2023-09-19T11:06:11;100687.00;;;20.50
5571;BMP180;2808;51.240;6.794;2023-09-19T11:09:01;100688.00;;;20.50
5571;BMP180;2808;51.240;6.794;2023-09-19T11:11:50;100705.00;;;20.40
5571;BMP180;2808;51.240;6.794;2023-09-19T11:14:46;100697.00;;;20.50
5571;BMP180;2808;51.240;6.794;2023-09-19T11:17:40;100694.00;;;20.50
5571;BMP180;2808;51.240;6.794;2023-09-19T11:20:20;100687.00;;;20.70
5571;BMP180;2808;51.240;6.794;2023-09-19T11:23:21;100697.00;;;20.60
5571;BMP180;2808;51.240;6.794;2023-09-19T11:25:57;100699.00;;;20.70
5571;BMP180;2808;51.240;6.794;2023-09-19T11:28:33;100689.00;;;20.90
5571;BMP180;2808;51.240;6.794;2023-09-19T11:34:40;100696.00;;;21.00
5571;BMP180;2808;51.240;6.794;2023-09-19T11:44:35;100704.00;;;21.10
5571;BMP180;2808;51.240;6.794;2023-09-19T11:47:17;100693.00;;;20.90
5571;BMP180;2808;51.240;6.794;2023-09-19T11:49:47;100688.00;;;20.80
5571;BMP180;2808;51.240;6.794;2023-09-19T11:52:22;100685.00;;;20.70
5571;BMP180;2808;51.240;6.794;2023-09-19T11:54:55;100695.00;;;20.70
5571;BMP180;2808;51.240;6.794;2023-09-19T11:57:42;100688.00;;;20.70
5571;BMP180;2808;51.240;6.794;2023-09-19T12:00:28;100690.00;;;20.90
5571;BMP180;2808;51.240;6.794;2023-09-19T12:02:56;100680.00;;;20.80
5571;BMP180;2808;51.240;6.794;2023-09-19T12:05:38;100680.00;;;20.80
5571;BMP180;2808;51.240;6.794;2023-09-19T12:08:06;100688.00;;;20.90
5571;BMP180;2808;51.240;6.794;2023-09-19T12:10:44;100682.00;;;20.90
5571;BMP180;2808;51.240;6.794;2023-09-19T12:13:16;100661.00;;;21.00
5571;BMP180;2808;51.240;6.794;2023-09-19T12:15:46;100660.00;;;21.00
5571;BMP180;2808;51.240;6.794;2023-09-19T12:18:26;100655.00;;;21.00
5571;BMP180;2808;51.240;6.794;2023-09-19T12:20:54;100673.00;;;21.00
5571;BMP180;2808;51.240;6.794;2023-09-19T12:23:21;100665.00;;;21.00
5571;BMP180;2808;51.240;6.794;2023-09-19T12:25:49;100670.00;;;21.00
5571;BMP180;2808;51.240;6.794;2023-09-19T12:28:19;100659.00;;;20.90
5571;BMP180;2808;51.240;6.794;2023-09-19T12:30:51;100655.00;;;20.90
5571;BMP180;2808;51.240;6.794;2023-09-19T12:33:21;100655.00;;;20.70
5571;BMP180;2808;51.240;6.794;2023-09-19T12:35:52;100648.00;;;20.70
5571;BMP180;2808;51.240;6.794;2023-09-19T12:38:33;100650.00;;;20.60
5571;BMP180;2808;51.240;6.794;2023-09-19T12:41:07;100643.00;;;20.70
5571;BMP180;2808;51.240;6.794;2023-09-19T12:43:37;100644.00;;;20.80
5571;BMP180;2808;51.240;6.794;2023-09-19T12:46:12;100635.00;;;20.90
5571;BMP180;2808;51.240;6.794;2023-09-19T12:48:42;100627.00;;;21.00
5571;BMP180;2808;51.240;6.794;2023-09-19T12:51:11;100629.00;;;21.00
5571;BMP180;2808;51.240;6.794;2023-09-19T12:53:40;100611.00;;;21.00
5571;BMP180;2808;51.240;6.794;2023-09-19T12:56:08;100621.00;;;20.80
5571;BMP180;2808;51.240;6.794;2023-09-19T12:58:52;100616.00;;;20.80
5571;BMP180;2808;51.240;6.794;2023-09-19T13:01:22;100621.00;;;20.70
5571;BMP180;2808;51.240;6.794;2023-09-19T13:04:11;100625.00;;;20.80
5571;BMP180;2808;51.240;6.794;2023-09-19T13:06:41;100621.00;;;20.80
5571;BMP180;2808;51.240;6.794;2023-09-19T13:09:11;100625.00;;;20.80
5571;BMP180;2808;51.240;6.794;2023-09-19T13:11:40;100628.00;;;20.80
5571;BMP180;2808;51.240;6.794;2023-09-19T13:14:20;100630.00;;;20.70
5571;BMP180;2808;51.240;6.794;2023-09-19T13:16:58;100641.00;;;20.90
5571;BMP180;2808;51.240;6.794;2023-09-19T13:19:39;100631.00;;;21.00
5571;BMP180;2808;51.240;6.794;2023-09-19T13:22:38;100639.00;;;21.10
5571;BMP180;2808;51.240;6.794;2023-09-19T13:25:07;100628.00;;;21.10
5571;BMP180;2808;51.240;6.794;2023-09-19T13:27:40;100626.00;;;21.20
5571;BMP180;2808;51.240;6.794;2023-09-19T13:30:11;100631.00;;;21.30
5571;BMP180;2808;51.240;6.794;2023-09-19T13:32:41;100633.00;;;21.20
5571;BMP180;2808;51.240;6.794;2023-09-19T13:35:40;100630.00;;;21.30
5571;BMP180;2808;51.240;6.794;2023-09-19T13:42:06;100640.00;;;21.40
5571;BMP180;2808;51.240;6.794;2023-09-19T13:44:48;100635.00;;;21.40
5571;BMP180;2808;51.240;6.794;2023-09-19T13:47:21;100633.00;;;21.30
5571;BMP180;2808;51.240;6.794;2023-09-19T13:49:59;100647.00;;;21.20
5571;BMP180;2808;51.240;6.794;2023-09-19T13:52:28;100641.00;;;21.10
5571;BMP180;2808;51.240;6.794;2023-09-19T13:55:02;100638.00;;;21.10
5571;BMP180;2808;51.240;6.794;2023-09-19T13:57:39;100636.00;;;21.00
5571;BMP180;2808;51.240;6.794;2023-09-19T14:00:08;100637.00;;;21.00
5571;BMP180;2808;51.240;6.794;2023-09-19T14:02:58;100644.00;;;21.00
5571;BMP180;2808;51.240;6.794;2023-09-19T14:05:40;100636.00;;;20.90
5571;BMP180;2808;51.240;6.794;2023-09-19T14:08:09;100652.00;;;20.90
5571;BMP180;2808;51.240;6.794;2023-09-19T14:12:05;100644.00;;;20.80
5571;BMP180;2808;51.240;6.794;2023-09-19T14:14:15;100644.00;;;20.80
5571;BMP180;2808;51.240;6.794;2023-09-19T14:16:51;100634.00;;;20.70
5571;BMP180;2808;51.240;6.794;2023-09-19T14:19:27;100647.00;;;20.80
5571;BMP180;2808;51.240;6.794;2023-09-19T14:21:55;100635.00;;;20.80
5571;BMP180;2808;51.240;6.794;2023-09-19T14:24:32;100635.00;;;20.90
5571;BMP180;2808;51.240;6.794;2023-09-19T14:27:00;100637.00;;;20.90
5571;BMP180;2808;51.240;6.794;2023-09-19T14:29:30;100649.00;;;20.90
5571;BMP180;2808;51.240;6.794;2023-09-19T14:31:57;100636.00;;;20.90
5571;BMP180;2808;51.240;6.794;2023-09-19T14:34:25;100651.00;;;20.90
5571;BMP180;2808;51.240;6.794;2023-09-19T14:36:52;100647.00;;;20.90
5571;BMP180;2808;51.240;6.794;2023-09-19T14:39:24;100640.00;;;20.90
5571;BMP180;2808;51.240;6.794;2023-09-19T14:41:53;100635.00;;;21.00
5571;BMP180;2808;51.240;6.794;2023-09-19T14:44:20;100634.00;;;20.90
5571;BMP180;2808;51.240;6.794;2023-09-19T14:46:51;100649.00;;;20.80
5571;BMP180;2808;51.240;6.794;2023-09-19T14:49:22;100646.00;;;20.80
5571;BMP180;2808;51.240;6.794;2023-09-19T14:51:49;100641.00;;;20.80
5571;BMP180;2808;51.240;6.794;2023-09-19T14:54:18;100648.00;;;20.70
5571;BMP180;2808;51.240;6.794;2023-09-19T14:56:49;100638.00;;;20.60
5571;BMP180;2808;51.240;6.794;2023-09-19T14:59:30;100647.00;;;20.60
5571;BMP180;2808;51.240;6.794;2023-09-19T15:02:03;100648.00;;;20.60